Skip Navigation Links Skip Navigation Links

Current Weather

Twin County, Galax Hillsville, Va.

For information only: do not use for flight planning or navigation.
Latest weather
Observation time Tuesday, June 25, 2019 1:55 PM EDT
Local time Tuesday, June 25, 2019 2:19 PM EDT
Flight conditions Visual Meteorological Conditions
Winds
Wind direction Northwest (320°)
Wind speed 12 mph
Visibility 10 mi.
Sky condition
Ceiling 6,000 ft. broken clouds
Cloud layer scattered clouds 3,100 ft.
Cloud layer scattered clouds 3,800 ft.
Cloud layer broken clouds 6,000 ft.
Temperature 75°F
Dewpoint 64°F
Altimeter 30.10 in.Hg
Derived measurements
Relative humidity 67%
Density altitude 3821 ft.
Climate data
Remarks
Fully automated report.
Automated weather observing station with precipitation discriminator.
METAR KHLX 251755Z AUTO 32010KT 10SM SCT031 SCT038 BKN060 24/18 A3010 RMK AO2 T02410176 10243 20186

Settings

Location code

InnerDrive.Weather 4.0.6770.0 Release CLR 4.0.30319.42000
Copyright ©2018 Inner Drive Technology. All rights reserved. Portions Copyright ©1986-2018 David Braverman.

Find weather

Site navigation


Skip Navigation Links

Place info

Page info

PayPal - The safer, easier way to pay online!

Return home.

Copyright ©2019 Inner Drive Technology. Purveyors of fine, hand-crafted computer software. Page printed 2019-06-25T18:19:41 UTC.